createdAt,value
2023-01-03T00:00:00.941Z,7.91
2023-01-03T00:10:09.907Z,7.97
2023-01-03T00:20:15.933Z,8.02
2023-01-03T00:30:21.616Z,8.04
2023-01-03T00:40:27.375Z,8.10
2023-01-03T00:50:33.001Z,8.20
2023-01-03T01:00:38.886Z,8.33
2023-01-03T01:11:01.858Z,8.53
2023-01-03T01:21:10.231Z,8.74
2023-01-03T01:31:17.881Z,8.90
2023-01-03T01:41:37.949Z,8.91
2023-01-03T01:51:44.219Z,8.73
2023-01-03T02:01:52.669Z,8.54
2023-01-03T02:12:17.034Z,8.39
2023-01-03T02:22:52.253Z,8.29
2023-01-03T02:33:06.584Z,8.20
2023-01-03T02:43:17.972Z,8.07
2023-01-03T02:53:29.138Z,7.98
2023-01-03T03:03:40.362Z,7.92
2023-01-03T03:13:52.195Z,7.80
2023-01-03T03:24:35.793Z,7.56
2023-01-03T03:34:43.770Z,7.32
2023-01-03T03:45:04.153Z,7.38
2023-01-03T03:55:16.377Z,7.35
2023-01-03T04:05:25.296Z,7.22
2023-01-03T04:15:31.217Z,7.25
2023-01-03T04:25:37.005Z,7.36
2023-01-03T04:35:42.762Z,7.41
2023-01-03T04:45:50.821Z,7.37
2023-01-03T04:55:57.819Z,7.22
2023-01-03T05:06:06.147Z,7.15
2023-01-03T05:16:14.556Z,7.12
2023-01-03T05:26:22.859Z,7.16
2023-01-03T05:36:28.655Z,7.21
2023-01-03T05:46:34.782Z,7.26
2023-01-03T05:56:40.601Z,7.31
2023-01-03T06:06:46.428Z,7.32
2023-01-03T06:17:15.106Z,7.27
2023-01-03T06:27:21.076Z,7.17
2023-01-03T06:37:26.799Z,7.08
2023-01-03T06:47:50.275Z,7.06
2023-01-03T06:57:55.935Z,7.08
2023-01-03T07:08:01.769Z,7.11
2023-01-03T07:18:07.909Z,7.13
2023-01-03T07:28:15.248Z,7.15
2023-01-03T07:38:21.198Z,7.12
2023-01-03T07:48:27.072Z,7.13
2023-01-03T07:58:33.477Z,7.22
2023-01-03T08:08:39.519Z,7.31
2023-01-03T08:18:46.070Z,7.30
2023-01-03T08:28:52.701Z,7.35
2023-01-03T08:39:03.558Z,7.47
2023-01-03T08:49:10.023Z,8.05
2023-01-03T08:59:15.911Z,8.56
2023-01-03T09:09:21.852Z,8.71
2023-01-03T09:19:27.594Z,8.68
2023-01-03T09:29:33.454Z,8.50
2023-01-03T09:39:40.754Z,8.22
2023-01-03T09:50:18.334Z,8.39
2023-01-03T10:00:42.656Z,8.57
2023-01-03T10:11:02.061Z,7.98
2023-01-03T10:21:14.774Z,7.36
2023-01-03T10:31:44.357Z,6.91
2023-01-03T10:41:52.765Z,6.73
2023-01-03T10:52:02.742Z,6.62
2023-01-03T11:02:23.469Z,6.50
2023-01-03T11:12:36.740Z,6.39
2023-01-03T11:22:47.537Z,6.43
2023-01-03T11:33:08.944Z,6.52
2023-01-03T11:43:31.166Z,6.67
2023-01-03T11:53:40.533Z,6.73
2023-01-03T12:04:02.783Z,6.80
2023-01-03T12:14:16.369Z,6.83
2023-01-03T12:24:33.064Z,6.88
2023-01-03T12:34:46.350Z,6.68
2023-01-03T12:45:01.277Z,6.44
2023-01-03T12:55:19.968Z,6.30
2023-01-03T13:05:30.818Z,6.33
2023-01-03T13:15:37.847Z,6.23
2023-01-03T13:25:44.806Z,6.06
2023-01-03T13:36:02.440Z,5.82
2023-01-03T13:46:22.445Z,5.54
2023-01-03T13:56:31.667Z,5.29
2023-01-03T14:06:58.348Z,5.18
2023-01-03T14:17:05.830Z,5.02
2023-01-03T14:27:17.265Z,4.68
2023-01-03T14:37:26.550Z,4.37
2023-01-03T14:47:38.722Z,4.06
2023-01-03T14:57:45.774Z,3.80
2023-01-03T15:07:51.548Z,3.57
2023-01-03T15:18:00.877Z,3.34
2023-01-03T15:28:25.161Z,3.16
2023-01-03T15:38:35.597Z,2.98
2023-01-03T15:48:43.269Z,2.78
2023-01-03T15:58:50.969Z,2.61
2023-01-03T16:08:56.960Z,2.49
2023-01-03T16:19:04.245Z,2.37
2023-01-03T16:29:10.180Z,2.11
2023-01-03T16:39:18.382Z,1.93
2023-01-03T16:49:24.413Z,1.62
2023-01-03T16:59:30.078Z,1.34
2023-01-03T17:09:38.137Z,1.05
2023-01-03T17:20:03.398Z,0.78
2023-01-03T17:30:14.523Z,0.53
2023-01-03T17:40:29.250Z,0.35
2023-01-03T17:50:39.020Z,0.16
2023-01-03T18:00:44.995Z,-0.13
2023-01-03T18:10:53.449Z,-0.34
2023-01-03T18:21:00.308Z,-0.49
2023-01-03T18:31:07.360Z,-0.61
2023-01-03T18:41:18.981Z,-0.72
2023-01-03T18:51:28.979Z,-0.84
2023-01-03T19:01:36.113Z,-0.94
2023-01-03T19:11:42.645Z,-1.09
2023-01-03T19:21:49.195Z,-1.24
2023-01-03T19:31:55.403Z,-1.44
2023-01-03T19:42:20.026Z,-1.56
2023-01-03T19:52:25.953Z,-1.65
2023-01-03T20:02:40.952Z,-1.80
2023-01-03T20:12:48.029Z,-1.86
2023-01-03T20:23:05.844Z,-1.92
2023-01-03T20:33:12.524Z,-1.99
2023-01-03T20:43:19.714Z,-2.07
2023-01-03T20:53:26.995Z,-2.20
2023-01-03T21:03:32.939Z,-2.34
2023-01-03T21:13:39.088Z,-2.46
2023-01-03T21:23:44.933Z,-2.60
2023-01-03T21:33:51.085Z,-2.61
2023-01-03T21:43:58.733Z,-2.71
2023-01-03T21:54:04.923Z,-2.68
2023-01-03T22:04:17.823Z,-2.41
2023-01-03T22:14:23.698Z,-2.20
2023-01-03T22:24:29.812Z,-1.97
2023-01-03T22:34:35.820Z,-1.72
2023-01-03T22:44:41.943Z,-1.58
2023-01-03T22:54:47.824Z,-1.44
2023-01-03T23:04:53.542Z,-1.33
2023-01-03T23:14:59.736Z,-1.12
2023-01-03T23:25:06.065Z,-0.93
2023-01-03T23:35:12.491Z,-0.78
2023-01-03T23:45:18.596Z,-0.61
2023-01-03T23:55:24.443Z,-0.48
